Time;durP1;ratioP1;P1;durP2;ratioP2;P2;SDS_P1;SDS_P2;PMS_P1;PMS_P2;Temp;Humidity;BMP_temperature;BMP_pressure;BME280_temperature;BME280_humidity;BME280_pressure;Samples;Min_cycle;Max_cycle;Signal;HPM_P1;HPM_P2
2022/11/06 00:00:07;;;;;;;21.50;10.80;;;;;;;8.18;92.33;100459.16;125077;1306;98103;-82
2022/11/06 00:03:32;;;;;;;19.40;9.70;;;;;;;8.15;92.34;100463.33;125041;1306;98039;-82
2022/11/06 00:06:49;;;;;;;20.60;10.80;;;;;;;8.11;92.46;100464.40;125071;1312;98107;-81
2022/11/06 00:09:55;;;;;;;18.30;10.20;;;;;;;8.08;92.61;100466.38;125063;1302;98458;-82
2022/11/06 00:13:01;;;;;;;17.90;9.50;;;;;;;8.00;92.59;100465.16;125136;1306;98080;-78
2022/11/06 00:16:08;;;;;;;19.80;9.20;;;;;;;8.02;92.68;100472.05;125027;1296;98115;-80
2022/11/06 00:19:14;;;;;;;17.20;10.40;;;;;;;8.05;92.43;100474.98;125067;1296;98771;-82
2022/11/06 00:22:20;;;;;;;20.40;11.00;;;;;;;8.07;92.65;100475.68;125082;1306;98003;-80
2022/11/06 00:25:25;;;;;;;23.60;11.20;;;;;;;8.08;92.45;100482.13;125021;1296;99208;-80
2022/11/06 00:28:31;;;;;;;20.50;10.10;;;;;;;8.03;92.40;100483.99;125000;1289;98042;-80
2022/11/06 00:31:37;;;;;;;16.00;9.20;;;;;;;7.99;92.43;100487.34;124979;1306;99087;-79
2022/11/06 00:34:42;;;;;;;22.70;12.20;;;;;;;7.98;92.40;100492.20;124998;1304;99180;-79
2022/11/06 00:37:48;;;;;;;21.70;10.80;;;;;;;7.98;92.48;100496.09;125234;1297;99103;-80
2022/11/06 00:40:53;;;;;;;17.90;10.70;;;;;;;7.97;92.36;100500.63;125277;1306;98804;-81
2022/11/06 00:44:01;;;;;;;22.00;11.50;;;;;;;7.97;92.35;100502.20;125052;1297;98657;-81
2022/11/06 00:47:07;;;;;;;19.90;9.80;;;;;;;7.97;92.20;100502.23;125076;1306;98132;-81
2022/11/06 00:50:13;;;;;;;23.20;10.00;;;;;;;7.94;92.33;100505.27;124992;1296;98154;-79
2022/11/06 00:53:18;;;;;;;16.90;8.10;;;;;;;7.91;92.26;100511.81;125007;1301;98800;-79
2022/11/06 00:56:24;;;;;;;19.00;10.50;;;;;;;7.93;92.33;100511.77;125106;1306;98478;-79
2022/11/06 00:59:30;;;;;;;23.90;12.10;;;;;;;7.98;92.38;100511.85;125145;1312;98691;-80
2022/11/06 01:02:35;;;;;;;20.60;11.50;;;;;;;7.98;92.28;100516.50;125085;1304;98873;-80
2022/11/06 01:05:41;;;;;;;21.50;10.70;;;;;;;7.95;92.31;100517.48;125258;1299;99084;-81
2022/11/06 01:08:47;;;;;;;19.60;9.30;;;;;;;7.94;92.26;100516.47;125333;1302;98077;-81
2022/11/06 01:11:55;;;;;;;21.30;11.00;;;;;;;7.98;92.26;100512.98;125351;1299;98084;-82
2022/11/06 01:15:01;;;;;;;21.20;10.80;;;;;;;7.99;92.14;100514.27;125346;1297;98054;-82
2022/11/06 01:18:07;;;;;;;23.70;11.90;;;;;;;8.01;92.06;100515.20;125328;1312;98039;-82
2022/11/06 01:21:15;;;;;;;19.90;11.30;;;;;;;8.02;92.04;100513.86;125148;1298;98105;-81
2022/11/06 01:24:22;;;;;;;20.70;11.50;;;;;;;7.99;92.02;100513.60;125056;1297;99051;-82
2022/11/06 01:27:28;;;;;;;20.30;10.10;;;;;;;7.93;92.00;100517.60;125298;1305;99168;-82
2022/11/06 01:30:37;;;;;;;18.80;10.50;;;;;;;7.86;92.00;100516.95;125173;1305;98766;-82
2022/11/06 01:33:43;;;;;;;23.10;12.20;;;;;;;7.80;92.05;100514.08;125136;1311;98063;-82
2022/11/06 01:36:48;;;;;;;26.30;12.20;;;;;;;7.81;92.15;100515.55;125162;1305;98007;-80
2022/11/06 01:39:54;;;;;;;23.70;12.40;;;;;;;7.80;92.09;100513.36;125119;1304;98698;-81
2022/11/06 01:42:59;;;;;;;25.90;12.30;;;;;;;7.81;92.09;100516.45;125025;1313;98797;-80
2022/11/06 01:46:05;;;;;;;20.10;10.20;;;;;;;7.79;92.09;100515.27;124986;1313;98807;-83
2022/11/06 01:49:14;;;;;;;18.80;10.10;;;;;;;7.75;91.87;100515.39;125305;1296;99235;-82
2022/11/06 01:52:20;;;;;;;24.10;11.40;;;;;;;7.73;91.79;100518.23;125354;1305;98054;-80
2022/11/06 01:55:30;;;;;;;23.30;11.70;;;;;;;7.67;91.73;100520.67;125333;1305;99190;-82
2022/11/06 01:58:40;;;;;;;21.70;11.50;;;;;;;7.64;91.85;100525.72;125160;1309;98045;-81
2022/11/06 02:01:49;;;;;;;19.90;10.70;;;;;;;7.62;91.73;100525.14;125143;1305;98039;-82
2022/11/06 02:04:55;;;;;;;20.10;10.70;;;;;;;7.58;91.69;100526.04;125193;1297;99189;-83
2022/11/06 02:08:01;;;;;;;17.80;9.70;;;;;;;7.50;91.74;100532.38;125086;1297;98048;-81
2022/11/06 02:11:06;;;;;;;18.10;9.70;;;;;;;7.41;91.85;100535.91;125117;1303;98591;-81
2022/11/06 02:14:38;;;;;;;21.20;10.60;;;;;;;7.39;92.05;100537.67;125153;1297;98017;-83
2022/11/06 02:18:00;;;;;;;19.70;11.10;;;;;;;7.42;91.86;100539.75;125043;1305;99209;-83
2022/11/06 02:21:47;;;;;;;19.70;10.50;;;;;;;7.45;91.73;100539.45;125080;1297;98692;-84
2022/11/06 02:25:15;;;;;;;18.50;10.70;;;;;;;7.47;91.84;100543.38;125081;1302;99157;-84
2022/11/06 02:28:26;;;;;;;18.20;9.50;;;;;;;7.47;91.59;100547.27;125074;1296;99124;-82
2022/11/06 02:31:35;;;;;;;19.40;9.30;;;;;;;7.44;91.51;100547.64;125057;1307;98059;-83
2022/11/06 02:34:43;;;;;;;19.30;10.60;;;;;;;7.43;91.63;100553.96;125036;1309;98101;-83
2022/11/06 02:37:53;;;;;;;19.30;10.70;;;;;;;7.38;91.73;100557.42;125279;1306;99259;-81
2022/11/06 02:41:04;;;;;;;20.40;11.40;;;;;;;7.41;91.93;100557.84;125121;1313;98014;-81
2022/11/06 02:44:15;;;;;;;21.70;10.70;;;;;;;7.45;91.89;100556.95;125106;1302;150065;-80
2022/11/06 02:47:23;;;;;;;20.40;10.60;;;;;;;7.46;91.67;100553.67;125646;1306;97997;-80
2022/11/06 02:50:34;;;;;;;14.10;8.50;;;;;;;7.45;91.62;100549.52;125631;1312;98839;-80
2022/11/06 02:53:43;;;;;;;17.80;9.60;;;;;;;7.39;91.72;100550.76;125297;1306;98106;-82
2022/11/06 02:56:54;;;;;;;18.30;9.90;;;;;;;7.36;91.72;100548.75;125348;1297;98121;-82
2022/11/06 03:00:05;;;;;;;21.40;10.00;;;;;;;7.33;91.76;100550.34;125351;1306;98776;-81
2022/11/06 03:03:18;;;;;;;19.50;10.10;;;;;;;7.31;91.52;100547.83;125371;1313;98778;-82
2022/11/06 03:06:31;;;;;;;19.20;9.20;;;;;;;7.29;91.60;100550.17;125415;1309;98153;-82
2022/11/06 03:09:37;;;;;;;18.40;10.00;;;;;;;7.24;91.57;100554.10;125316;1297;99128;-82
2022/11/06 03:12:55;;;;;;;14.50;8.10;;;;;;;7.18;91.39;100558.27;125260;1312;99196;-82
2022/11/06 03:16:15;;;;;;;13.10;7.30;;;;;;;7.10;91.03;100560.68;125233;1298;98127;-81
2022/11/06 03:19:29;;;;;;;18.40;8.70;;;;;;;7.03;90.90;100564.83;125329;1303;99123;-81
2022/11/06 03:22:40;;;;;;;18.10;9.20;;;;;;;6.99;90.67;100568.67;125180;1302;98048;-81
2022/11/06 03:25:51;;;;;;;15.90;8.70;;;;;;;6.97;91.08;100574.09;125177;1298;99222;-81
2022/11/06 03:29:02;;;;;;;14.80;9.10;;;;;;;6.94;91.16;100577.33;125244;1296;98811;-81
2022/11/06 03:32:14;;;;;;;20.60;11.00;;;;;;;6.85;91.06;100584.41;125341;1302;99064;-81
2022/11/06 03:35:25;;;;;;;22.30;8.90;;;;;;;6.72;91.14;100585.98;125356;1295;98106;-81
2022/11/06 03:38:34;;;;;;;19.20;10.30;;;;;;;6.62;91.47;100585.36;125207;1305;98027;-81
2022/11/06 03:41:47;;;;;;;21.00;13.50;;;;;;;6.54;91.58;100583.38;125214;1305;98045;-83
2022/11/06 03:44:54;;;;;;;;;;;;;;;6.54;91.48;100586.71;125229;1295;99160;-82
2022/11/06 03:48:07;;;;;;;24.00;16.00;;;;;;;6.54;91.43;100590.38;125280;1312;98110;-83
2022/11/06 03:51:17;;;;;;;22.90;14.10;;;;;;;6.50;91.38;100596.33;125410;1304;98015;-83
2022/11/06 03:54:26;;;;;;;22.90;12.40;;;;;;;6.47;91.04;100594.81;125101;1311;99158;-83
2022/11/06 03:57:37;;;;;;;16.50;9.60;;;;;;;6.43;91.15;100594.57;125025;1306;97956;-83
2022/11/06 04:00:44;;;;;;;14.80;8.30;;;;;;;6.40;91.02;100591.51;125115;1312;99078;-83
2022/11/06 04:03:56;;;;;;;15.80;8.10;;;;;;;6.35;90.62;100593.77;125186;1307;98044;-83
2022/11/06 04:07:06;;;;;;;13.20;7.10;;;;;;;6.31;90.23;100591.66;125040;1305;98169;-82
2022/11/06 04:13:57;;;;;;;12.80;7.50;;;;;;;6.19;89.75;100587.38;125288;1304;99155;-81
2022/11/06 04:17:06;;;;;;;12.50;6.50;;;;;;;6.14;89.49;100584.07;125189;1305;98044;-83
2022/11/06 04:21:20;;;;;;;14.60;7.20;;;;;;;6.05;89.36;100591.09;125394;1296;98041;-81
2022/11/06 04:26:34;;;;;;;11.10;6.80;;;;;;;5.97;89.31;100588.56;125069;1303;98036;-81
2022/11/06 04:27:28;;;;;;;15.30;7.80;;;;;;;5.88;89.15;100586.71;125378;1302;98005;-82
2022/11/06 04:30:43;;;;;;;13.10;6.70;;;;;;;5.77;88.61;100587.19;125284;1302;98032;-78
2022/11/06 04:33:57;;;;;;;11.50;6.50;;;;;;;5.67;88.64;100590.34;125147;1302;98832;-81
2022/11/06 04:37:08;;;;;;;11.20;6.50;;;;;;;5.62;88.63;100593.59;125332;1302;99164;-80
2022/11/06 04:40:23;;;;;;;11.60;6.40;;;;;;;5.58;88.45;100589.43;125233;1302;98092;-82
2022/11/06 04:43:39;;;;;;;12.80;6.90;;;;;;;5.57;88.35;100587.94;125340;1302;99279;-80
2022/11/06 04:46:52;;;;;;;13.50;7.30;;;;;;;5.52;88.22;100583.52;125361;1305;98085;-79
2022/11/06 04:50:01;;;;;;;12.50;7.10;;;;;;;5.48;88.28;100583.46;125108;1302;99173;-84
2022/11/06 04:53:09;;;;;;;13.00;6.90;;;;;;;5.41;87.84;100585.03;125324;1306;98034;-82
2022/11/06 04:56:23;;;;;;;13.60;6.70;;;;;;;5.35;87.87;100587.59;125425;1302;98781;-81
2022/11/06 04:59:30;;;;;;;13.90;7.30;;;;;;;5.27;87.67;100585.34;124982;1302;98773;-82
2022/11/06 05:02:35;;;;;;;13.00;6.80;;;;;;;5.21;87.69;100584.36;125030;1302;98158;-82
2022/11/06 05:05:42;;;;;;;14.60;7.00;;;;;;;5.14;87.60;100585.92;125064;1313;98456;-83
2022/11/06 05:08:47;;;;;;;13.30;6.40;;;;;;;5.07;87.54;100592.93;125124;1295;98011;-82
2022/11/06 05:11:53;;;;;;;10.30;5.50;;;;;;;5.02;87.43;100597.86;125009;1299;99228;-82
2022/11/06 05:14:58;;;;;;;13.10;7.40;;;;;;;4.99;87.32;100594.73;125085;1312;98003;-81
2022/11/06 05:18:04;;;;;;;11.90;6.60;;;;;;;4.96;86.97;100594.81;125052;1305;98037;-82
2022/11/06 05:24:33;;;;;;;14.60;7.30;;;;;;;4.90;86.79;100597.30;124980;1313;98034;-83
2022/11/06 05:27:39;;;;;;;14.50;7.60;;;;;;;4.88;86.83;100599.27;125013;1306;99110;-82
2022/11/06 05:30:46;;;;;;;12.40;6.80;;;;;;;4.82;86.78;100602.81;125049;1318;98438;-82
2022/11/06 05:33:52;;;;;;;13.10;7.60;;;;;;;4.77;86.63;100607.39;125054;1319;99173;-83
2022/11/06 05:36:58;;;;;;;11.10;6.50;;;;;;;4.70;86.52;100608.04;125126;1309;98103;-83
2022/11/06 05:40:04;;;;;;;15.30;7.50;;;;;;;4.64;86.41;100607.63;125128;1312;98800;-83
2022/11/06 05:43:10;;;;;;;13.00;7.10;;;;;;;4.59;86.36;100608.48;125104;1312;98792;-82
2022/11/06 05:46:15;;;;;;;12.30;6.60;;;;;;;4.53;86.45;100606.61;125053;1319;98018;-83
2022/11/06 05:49:20;;;;;;;11.20;6.10;;;;;;;4.52;86.33;100607.36;125049;1306;99175;-83
2022/11/06 05:52:26;;;;;;;12.10;6.40;;;;;;;4.53;86.17;100607.98;125132;1296;99167;-83
2022/11/06 05:55:32;;;;;;;13.50;7.40;;;;;;;4.56;85.97;100612.95;125071;1318;98100;-83
2022/11/06 05:58:37;;;;;;;11.70;6.50;;;;;;;4.56;86.02;100617.48;124992;1296;98740;-83
2022/11/06 06:01:42;;;;;;;11.30;7.20;;;;;;;4.55;85.70;100617.41;125061;1313;98791;-83
2022/11/06 06:04:48;;;;;;;11.20;7.40;;;;;;;4.53;85.80;100616.12;125035;1316;99176;-83
2022/11/06 06:07:53;;;;;;;12.60;6.80;;;;;;;4.52;85.71;100617.58;125138;1312;98065;-85
2022/11/06 06:10:59;;;;;;;13.30;7.50;;;;;;;4.50;85.73;100619.68;125113;1310;98017;-83
2022/11/06 06:14:04;;;;;;;13.80;7.90;;;;;;;4.51;85.77;100624.36;125291;1306;99175;-83
2022/11/06 06:17:10;;;;;;;14.10;7.60;;;;;;;4.49;85.68;100626.55;125233;1302;98028;-83
2022/11/06 06:20:15;;;;;;;15.20;8.20;;;;;;;4.50;85.62;100633.90;125100;1319;98348;-83
2022/11/06 06:23:21;;;;;;;25.40;10.50;;;;;;;4.51;85.67;100639.09;125035;1306;98095;-83
2022/11/06 06:26:27;;;;;;;17.10;7.00;;;;;;;4.57;85.69;100638.21;125243;1306;99156;-81
2022/11/06 06:29:32;;;;;;;13.30;6.40;;;;;;;4.64;85.67;100643.38;125247;1302;98820;-78
2022/11/06 06:32:38;;;;;;;13.10;7.40;;;;;;;4.69;85.57;100643.14;125336;1297;99169;-78
2022/11/06 06:35:43;;;;;;;13.80;7.00;;;;;;;4.77;85.72;100643.19;124937;1307;99058;-78
2022/11/06 06:38:48;;;;;;;12.10;7.30;;;;;;;4.87;85.74;100644.78;125022;1296;99094;-75
2022/11/06 06:41:54;;;;;;;12.20;7.20;;;;;;;4.95;85.56;100647.42;124995;1306;99042;-74
2022/11/06 06:44:59;;;;;;;11.20;6.90;;;;;;;5.00;85.59;100648.44;124974;1306;98037;-75
2022/11/06 06:48:07;;;;;;;11.40;7.10;;;;;;;5.07;85.69;100651.48;124989;1297;101419;-74
2022/11/06 06:51:12;;;;;;;13.10;7.70;;;;;;;5.16;85.80;100658.29;124955;1306;98068;-76
2022/11/06 06:54:18;;;;;;;12.80;7.90;;;;;;;5.22;85.69;100664.05;124974;1297;99094;-76
2022/11/06 06:57:23;;;;;;;11.50;7.20;;;;;;;5.26;85.95;100665.52;124932;1313;98009;-73
2022/11/06 07:00:29;;;;;;;12.20;6.80;;;;;;;5.33;85.96;100667.83;124908;1305;98104;-74
2022/11/06 07:03:34;;;;;;;12.40;6.60;;;;;;;5.42;85.91;100671.05;124911;1306;98668;-74
2022/11/06 07:06:40;;;;;;;11.00;6.90;;;;;;;5.56;86.04;100672.05;125069;1308;98779;-75
2022/11/06 07:09:46;;;;;;;11.40;7.10;;;;;;;5.71;86.30;100669.52;125156;1305;98797;-77
2022/11/06 07:12:51;;;;;;;12.90;7.40;;;;;;;5.83;85.94;100671.99;125008;1306;98780;-78
2022/11/06 07:15:56;;;;;;;19.90;11.10;;;;;;;5.92;86.05;100678.57;125110;1316;98817;-78
2022/11/06 07:19:02;;;;;;;18.80;9.80;;;;;;;6.00;86.29;100682.27;125036;1297;98031;-78
2022/11/06 07:22:07;;;;;;;15.40;8.70;;;;;;;6.05;86.49;100684.20;125084;1296;98416;-74
2022/11/06 07:25:13;;;;;;;12.40;8.00;;;;;;;6.11;86.49;100686.91;124962;1308;99263;-75
2022/11/06 07:28:18;;;;;;;12.30;7.70;;;;;;;6.19;86.51;100680.73;124992;1306;98153;-76
2022/11/06 07:31:24;;;;;;;15.00;8.90;;;;;;;6.23;86.23;100683.24;125115;1305;98686;-78
2022/11/06 07:34:30;;;;;;;16.40;9.60;;;;;;;6.24;86.61;100691.41;125119;1302;98104;-77
2022/11/06 07:37:36;;;;;;;13.00;8.10;;;;;;;6.28;87.00;100685.16;125194;1295;99209;-77
2022/11/06 07:40:42;;;;;;;14.50;8.60;;;;;;;6.36;87.44;100682.42;125240;1289;98805;-79
2022/11/06 07:43:50;;;;;;;14.70;8.90;;;;;;;6.46;87.48;100677.42;125165;1299;98038;-81
2022/11/06 07:46:56;;;;;;;14.80;8.80;;;;;;;6.54;87.48;100670.30;125130;1297;98772;-88
2022/11/06 07:50:01;;;;;;;16.60;9.60;;;;;;;6.65;87.86;100663.57;125326;1296;99237;-81
2022/11/06 07:53:06;;;;;;;16.20;9.10;;;;;;;6.80;87.95;100665.66;125242;1303;99192;-82
2022/11/06 07:56:12;;;;;;;13.60;8.50;;;;;;;6.92;88.08;100663.49;125365;1304;99075;-82
2022/11/06 07:59:18;;;;;;;18.20;9.50;;;;;;;7.05;88.20;100661.71;125321;1295;99169;-84
2022/11/06 08:02:23;;;;;;;17.50;9.20;;;;;;;7.20;88.17;100665.38;125377;1297;98018;-89
2022/11/06 08:05:29;;;;;;;18.10;10.60;;;;;;;7.33;88.21;100659.36;125180;1306;99173;-85
2022/11/06 08:08:34;;;;;;;30.30;13.60;;;;;;;7.43;88.29;100660.83;125196;1299;99186;-86
2022/11/06 08:11:39;;;;;;;58.50;24.80;;;;;;;7.55;88.10;100663.27;125350;1312;98014;-88
2022/11/06 08:14:45;;;;;;;27.40;14.90;;;;;;;7.64;87.98;100664.29;125348;1299;98474;-86
2022/11/06 08:17:51;;;;;;;17.20;8.80;;;;;;;7.73;88.32;100665.41;125243;1299;98039;-87
2022/11/06 08:20:56;;;;;;;30.60;14.20;;;;;;;7.83;88.23;100666.84;125172;1312;98189;-87
2022/11/06 08:24:02;;;;;;;22.60;11.50;;;;;;;7.93;88.21;100667.98;125430;1304;98479;-84
2022/11/06 08:27:08;;;;;;;15.20;8.80;;;;;;;8.07;88.26;100669.64;125430;1307;98457;-89
2022/11/06 08:30:15;;;;;;;18.60;10.20;;;;;;;8.21;88.17;100670.10;125510;1305;99048;-88
2022/11/06 08:33:21;;;;;;;15.20;9.30;;;;;;;8.33;88.19;100665.20;125446;1306;99164;-87
2022/11/06 08:36:27;;;;;;;17.20;9.80;;;;;;;8.45;88.35;100660.02;125084;1313;98009;-85
2022/11/06 08:39:32;;;;;;;14.10;8.40;;;;;;;8.56;88.12;100660.86;125043;1302;99135;-83
2022/11/06 08:42:38;;;;;;;123.70;53.00;;;;;;;8.62;88.17;100659.95;124898;1313;98054;-90
2022/11/06 08:45:43;;;;;;;35.30;18.00;;;;;;;8.68;88.23;100656.59;125103;1312;97991;-87
2022/11/06 08:48:49;;;;;;;22.30;10.20;;;;;;;8.77;88.12;100655.56;125084;1313;99172;-85
2022/11/06 08:51:55;;;;;;;33.60;16.10;;;;;;;8.85;88.16;100656.63;125159;1312;98117;-86
2022/11/06 08:55:00;;;;;;;75.60;36.60;;;;;;;8.94;88.14;100655.34;125301;1289;101447;-84
2022/11/06 08:58:07;;;;;;;59.70;26.60;;;;;;;9.01;87.94;100652.02;125311;1298;98042;-87
2022/11/06 09:01:12;;;;;;;36.30;18.20;;;;;;;9.08;87.88;100657.45;125424;1314;98126;-87
2022/11/06 09:04:18;;;;;;;19.20;9.80;;;;;;;9.13;87.77;100654.73;125192;1312;99078;-86
2022/11/06 09:07:24;;;;;;;22.70;10.40;;;;;;;9.16;87.57;100657.09;125296;1306;98783;-87
2022/11/06 09:10:29;;;;;;;11.00;5.20;;;;;;;9.17;87.51;100657.34;125263;1312;98038;-86
2022/11/06 09:13:35;;;;;;;14.60;7.00;;;;;;;9.20;87.61;100657.84;125325;1305;98069;-83
2022/11/06 09:16:40;;;;;;;12.10;5.90;;;;;;;9.24;87.19;100657.83;125168;1312;99133;-81
2022/11/06 09:19:46;;;;;;;14.20;7.70;;;;;;;9.30;86.67;100666.58;125263;1299;99132;-79
2022/11/06 09:22:52;;;;;;;10.30;5.70;;;;;;;9.34;87.01;100666.20;125073;1306;98670;-77
2022/11/06 09:25:59;;;;;;;14.00;6.70;;;;;;;9.41;86.91;100671.39;125105;1307;98029;-82
2022/11/06 09:29:05;;;;;;;9.40;5.80;;;;;;;9.45;86.88;100669.30;125188;1305;98049;-78
2022/11/06 09:32:11;;;;;;;10.10;5.40;;;;;;;9.50;86.64;100671.36;124987;1307;99491;-80
2022/11/06 09:35:17;;;;;;;10.00;4.40;;;;;;;9.50;85.85;100671.00;124909;1305;99156;-84
2022/11/06 09:38:23;;;;;;;7.90;3.80;;;;;;;9.51;86.21;100671.84;125107;1309;98019;-88
2022/11/06 09:41:34;;;;;;;4.70;2.40;;;;;;;9.55;86.25;100672.55;125100;1319;97997;-86
2022/11/06 09:44:56;;;;;;;11.20;3.30;;;;;;;9.61;85.68;100672.36;125095;1312;98119;-79
2022/11/06 09:48:13;;;;;;;11.50;3.50;;;;;;;9.69;86.06;100672.75;125380;1302;98100;-82
2022/11/06 09:51:28;;;;;;;8.10;3.80;;;;;;;9.75;85.79;100668.58;125518;1305;98155;-81
2022/11/06 09:54:41;;;;;;;7.20;4.10;;;;;;;9.80;85.50;100668.82;125063;1306;99174;-85
2022/11/06 09:57:51;;;;;;;9.00;4.90;;;;;;;9.85;86.08;100668.61;125135;1302;99123;-80
2022/11/06 10:00:58;;;;;;;12.70;4.60;;;;;;;9.90;85.84;100670.16;125060;1296;99289;-81
2022/11/06 10:04:05;;;;;;;8.90;4.00;;;;;;;9.93;85.72;100664.52;124953;1312;98781;-80
2022/11/06 10:07:25;;;;;;;7.80;3.60;;;;;;;9.97;85.55;100665.05;125070;1312;98463;-79
2022/11/06 10:10:37;;;;;;;5.40;2.50;;;;;;;10.01;85.57;100663.09;124964;1313;98050;-82
2022/11/06 10:13:58;;;;;;;6.20;2.10;;;;;;;10.04;85.66;100664.17;125313;1297;98414;-80
2022/11/06 10:17:18;;;;;;;10.30;2.30;;;;;;;10.13;85.05;100659.50;125226;1305;98021;-79
2022/11/06 10:20:30;;;;;;;6.30;2.40;;;;;;;10.23;84.95;100656.30;125333;1289;99172;-80
2022/11/06 10:23:39;;;;;;;;;;;;;;;10.31;84.09;100653.11;125299;1289;98027;-78
2022/11/06 10:26:53;;;;;;;8.70;2.10;;;;;;;10.40;83.86;100654.08;125115;1312;99198;-78
2022/11/06 10:30:10;;;;;;;7.00;2.20;;;;;;;10.48;83.74;100648.34;125124;1296;98045;-82
2022/11/06 10:33:29;;;;;;;5.00;1.90;;;;;;;10.55;83.86;100647.44;125153;1298;98380;-82
2022/11/06 10:36:42;;;;;;;7.30;2.70;;;;;;;10.63;83.38;100646.77;125180;1305;98719;-79
2022/11/06 10:39:49;;;;;;;5.40;2.50;;;;;;;10.70;83.30;100643.04;125283;1289;98775;-83
2022/11/06 10:43:03;;;;;;;7.00;2.80;;;;;;;10.79;83.33;100638.83;125296;1302;98037;-84
2022/11/06 10:46:20;;;;;;;6.10;2.70;;;;;;;10.87;83.31;100634.19;125238;1311;98041;-82
2022/11/06 10:49:35;;;;;;;6.30;3.20;;;;;;;10.92;82.82;100636.35;125262;1305;98464;-84
2022/11/06 10:52:48;;;;;;;8.60;3.40;;;;;;;10.93;82.68;100634.15;125357;1292;98046;-83
2022/11/06 10:56:07;;;;;;;7.40;3.40;;;;;;;10.92;82.74;100627.40;125234;1297;98704;-85
2022/11/06 10:59:13;;;;;;;6.50;3.50;;;;;;;10.91;82.38;100626.79;125209;1304;98017;-85
2022/11/06 11:02:28;;;;;;;7.70;3.60;;;;;;;10.88;82.16;100625.53;125217;1296;98020;-80
2022/11/06 11:05:39;;;;;;;5.20;3.50;;;;;;;10.84;82.16;100621.48;125129;1299;99170;-81
2022/11/06 11:08:47;;;;;;;6.80;3.40;;;;;;;10.80;82.06;100618.47;125252;1305;98138;-82
2022/11/06 11:11:53;;;;;;;7.20;3.30;;;;;;;10.73;81.99;100618.90;125446;1296;98035;-82
2022/11/06 11:15:13;;;;;;;7.80;4.10;;;;;;;10.63;81.86;100615.23;125401;1298;98027;-82
2022/11/06 11:18:23;;;;;;;6.10;2.30;;;;;;;10.52;81.40;100607.20;125594;1311;98830;-81
2022/11/06 11:21:29;;;;;;;4.50;2.20;;;;;;;10.45;81.15;100602.52;125219;1306;98016;-81
2022/11/06 11:24:34;;;;;;;4.90;2.50;;;;;;;10.37;80.95;100595.75;125213;1297;98665;-83
2022/11/06 11:27:45;;;;;;;3.50;2.10;;;;;;;10.29;81.03;100601.10;125050;1299;98393;-83
2022/11/06 11:30:55;;;;;;;6.20;2.10;;;;;;;10.20;80.53;100596.95;125134;1303;97994;-82
2022/11/06 11:34:03;;;;;;;7.40;2.60;;;;;;;10.12;80.30;100595.38;125276;1305;99167;-83
2022/11/06 11:37:22;;;;;;;5.30;2.20;;;;;;;10.10;80.32;100597.58;125184;1300;98056;-82
2022/11/06 11:40:35;;;;;;;5.90;2.40;;;;;;;10.10;80.43;100597.36;125066;1302;99063;-81
2022/11/06 11:43:42;;;;;;;6.40;2.50;;;;;;;10.04;80.28;100597.90;125196;1304;99198;-87
2022/11/06 11:46:51;;;;;;;5.40;2.40;;;;;;;9.97;80.09;100596.97;125541;1305;98035;-81
2022/11/06 11:49:56;;;;;;;5.20;2.40;;;;;;;9.95;79.95;100595.58;125427;1299;98035;-80
2022/11/06 11:53:06;;;;;;;3.70;1.90;;;;;;;9.99;79.80;100595.75;125080;1302;98658;-82
2022/11/06 11:56:17;;;;;;;4.40;1.90;;;;;;;10.02;79.97;100591.89;125389;1297;98244;-80
2022/11/06 11:59:27;;;;;;;4.50;2.10;;;;;;;10.01;79.84;100593.02;125144;1305;98018;-81
2022/11/06 12:02:40;;;;;;;5.30;2.60;;;;;;;10.03;79.56;100589.52;125035;1297;98446;-78
2022/11/06 12:05:46;;;;;;;5.20;2.40;;;;;;;10.10;79.45;100585.65;125117;1297;99137;-79
2022/11/06 12:08:55;;;;;;;4.70;2.10;;;;;;;10.19;79.54;100583.17;124984;1305;99181;-79
2022/11/06 12:12:02;;;;;;;5.50;2.40;;;;;;;10.29;79.29;100579.69;124955;1305;98102;-81
2022/11/06 12:15:27;;;;;;;6.00;2.40;;;;;;;10.34;78.73;100573.70;125128;1298;98783;-77
2022/11/06 12:18:36;;;;;;;4.10;2.20;;;;;;;10.37;78.75;100571.95;125038;1304;98773;-76
2022/11/06 12:21:46;;;;;;;3.80;2.10;;;;;;;10.39;78.50;100570.16;125080;1297;98441;-82
2022/11/06 13:10:51;;;;;;;4.60;2.10;;;;;;;10.27;76.40;100520.81;125157;1304;98906;-79
2022/11/06 13:14:12;;;;;;;5.60;2.40;;;;;;;10.23;76.37;100518.66;124598;1312;98897;-80
2022/11/06 13:17:24;;;;;;;53.70;42.90;;;;;;;10.20;75.78;100515.33;124572;1301;99786;-82
2022/11/06 13:20:36;;;;;;;21.10;15.10;;;;;;;10.18;76.04;100512.36;124800;1308;99129;-79
2022/11/06 13:23:47;;;;;;;8.40;5.50;;;;;;;10.15;75.55;100515.34;124646;1300;98190;-75
2022/11/06 13:26:59;;;;;;;72.80;62.30;;;;;;;10.11;75.87;100515.91;124715;1299;99074;-76
2022/11/06 13:30:13;;;;;;;84.00;56.40;;;;;;;10.08;75.60;100515.77;124878;1317;98080;-80
2022/11/06 13:33:24;;;;;;;49.80;29.50;;;;;;;10.06;75.26;100517.10;124829;1309;98030;-82
2022/11/06 13:36:31;;;;;;;16.50;8.90;;;;;;;10.02;75.36;100511.67;124862;1309;99100;-82
2022/11/06 13:39:41;;;;;;;11.20;5.00;;;;;;;10.01;75.41;100513.23;125095;1315;98276;-80
2022/11/06 13:42:51;;;;;;;27.70;14.00;;;;;;;9.99;75.53;100507.23;124685;1316;98376;-80
2022/11/06 13:46:05;;;;;;;75.20;35.00;;;;;;;9.95;75.46;100508.83;125122;1316;98661;-81
2022/11/06 13:49:22;;;;;;;39.30;18.20;;;;;;;9.92;75.46;100510.91;125619;1299;99013;-81
2022/11/06 13:52:34;;;;;;;168.10;85.20;;;;;;;9.87;75.55;100509.02;125879;1299;98737;-80
2022/11/06 13:55:58;;;;;;;57.40;30.40;;;;;;;9.83;75.53;100509.59;125821;1297;99313;-81
2022/11/06 13:59:28;;;;;;;17.00;9.70;;;;;;;9.77;75.78;100512.02;125724;1306;98757;-81
2022/11/06 14:02:51;;;;;;;12.00;7.70;;;;;;;9.74;75.79;100512.34;125896;1302;98017;-80
2022/11/06 14:06:01;;;;;;;9.30;5.50;;;;;;;9.75;75.92;100512.23;125708;1306;98015;-80
2022/11/06 14:09:13;;;;;;;7.70;5.60;;;;;;;9.79;75.52;100510.99;125815;1313;98164;-81
2022/11/06 14:12:22;;;;;;;52.90;45.00;;;;;;;9.80;75.48;100510.73;125201;1296;99197;-80
2022/11/06 14:15:34;;;;;;;24.80;20.00;;;;;;;9.79;75.33;100511.17;125211;1306;99265;-83
2022/11/06 14:18:40;;;;;;;18.40;14.10;;;;;;;9.75;75.51;100514.80;125098;1297;99165;-85
2022/11/06 14:21:51;;;;;;;11.30;7.40;;;;;;;9.66;75.06;100514.02;125437;1297;98034;-85
2022/11/06 14:24:57;;;;;;;16.80;14.30;;;;;;;9.56;75.08;100511.55;125444;1297;98592;-82
2022/11/06 14:28:08;;;;;;;10.00;7.00;;;;;;;9.46;75.49;100516.13;125309;1295;99320;-78
2022/11/06 14:31:51;;;;;;;15.70;13.00;;;;;;;9.36;75.48;100515.76;125258;1297;97953;-78
2022/11/06 14:34:57;;;;;;;13.40;10.80;;;;;;;9.24;75.56;100515.46;125134;1296;99213;-77
2022/11/06 14:38:19;;;;;;;9.40;6.30;;;;;;;9.11;75.83;100510.28;124955;1296;98039;-81
2022/11/06 14:41:56;;;;;;;6.60;4.20;;;;;;;8.95;75.99;100511.45;125126;1305;98221;-74
2022/11/06 14:45:09;;;;;;;6.70;4.80;;;;;;;8.80;76.22;100511.02;124843;1305;98040;-75
2022/11/06 14:48:28;;;;;;;6.20;4.30;;;;;;;8.66;76.18;100510.47;125085;1304;99218;-76
2022/11/06 14:51:35;;;;;;;23.40;17.00;;;;;;;8.52;76.50;100508.02;125181;1296;99172;-75
2022/11/06 14:54:50;;;;;;;33.80;22.80;;;;;;;8.34;76.37;100506.88;124945;1291;99198;-76
2022/11/06 14:57:58;;;;;;;19.20;11.50;;;;;;;8.21;76.60;100507.27;124984;1313;99201;-74
2022/11/06 15:01:15;;;;;;;9.50;4.60;;;;;;;8.11;76.54;100510.77;125093;1289;99135;-75
2022/11/06 15:04:21;;;;;;;9.10;4.90;;;;;;;8.03;76.63;100511.95;125075;1302;98039;-78
2022/11/06 15:07:53;;;;;;;8.70;5.10;;;;;;;7.95;76.55;100510.54;125214;1297;98807;-75
2022/11/06 15:11:00;;;;;;;6.30;3.60;;;;;;;7.85;76.64;100507.30;126362;1296;99128;-77
2022/11/06 15:14:35;;;;;;;7.20;4.40;;;;;;;7.74;76.59;100503.08;124985;1304;98056;-76
2022/11/06 15:17:41;;;;;;;6.20;3.60;;;;;;;7.60;76.40;100502.46;124958;1295;99206;-77
2022/11/06 15:20:52;;;;;;;5.30;3.30;;;;;;;7.47;76.26;100502.67;125016;1298;98008;-75